sensor_id;sensor_type;location;lat;lon;timestamp;P1;durP1;ratioP1;P2;durP2;ratioP2
75191;SDS011;63771;52.580;9.734;2023-02-24T00:01:16;10.23;;;2.55;;
75191;SDS011;63771;52.580;9.734;2023-02-24T00:03:52;10.75;;;2.88;;
75191;SDS011;63771;52.580;9.734;2023-02-24T00:06:21;15.38;;;3.08;;
75191;SDS011;63771;52.580;9.734;2023-02-24T00:08:47;12.85;;;2.28;;
75191;SDS011;63771;52.580;9.734;2023-02-24T00:11:13;20.20;;;3.03;;
75191;SDS011;63771;52.580;9.734;2023-02-24T00:13:41;12.52;;;2.10;;
75191;SDS011;63771;52.580;9.734;2023-02-24T00:16:11;13.40;;;2.30;;
75191;SDS011;63771;52.580;9.734;2023-02-24T00:18:38;14.85;;;2.70;;
75191;SDS011;63771;52.580;9.734;2023-02-24T00:21:04;15.27;;;2.40;;
75191;SDS011;63771;52.580;9.734;2023-02-24T00:23:33;13.63;;;2.97;;
75191;SDS011;63771;52.580;9.734;2023-02-24T00:26:00;10.10;;;2.00;;
75191;SDS011;63771;52.580;9.734;2023-02-24T00:28:27;6.68;;;1.92;;
75191;SDS011;63771;52.580;9.734;2023-02-24T00:30:52;10.38;;;2.97;;
75191;SDS011;63771;52.580;9.734;2023-02-24T00:33:19;7.60;;;3.20;;
75191;SDS011;63771;52.580;9.734;2023-02-24T00:35:48;9.23;;;2.67;;
75191;SDS011;63771;52.580;9.734;2023-02-24T00:38:13;6.25;;;2.70;;
75191;SDS011;63771;52.580;9.734;2023-02-24T00:40:39;6.13;;;2.88;;
75191;SDS011;63771;52.580;9.734;2023-02-24T00:43:09;10.02;;;2.47;;
75191;SDS011;63771;52.580;9.734;2023-02-24T00:45:35;7.13;;;2.08;;
75191;SDS011;63771;52.580;9.734;2023-02-24T00:48:03;7.25;;;2.83;;
75191;SDS011;63771;52.580;9.734;2023-02-24T00:50:28;7.10;;;1.50;;
75191;SDS011;63771;52.580;9.734;2023-02-24T00:52:55;6.55;;;1.75;;
75191;SDS011;63771;52.580;9.734;2023-02-24T00:55:20;1.37;;;1.03;;
75191;SDS011;63771;52.580;9.734;2023-02-24T00:57:47;10.10;;;1.88;;
75191;SDS011;63771;52.580;9.734;2023-02-24T01:00:15;5.70;;;1.65;;
75191;SDS011;63771;52.580;9.734;2023-02-24T01:02:41;8.75;;;2.97;;
75191;SDS011;63771;52.580;9.734;2023-02-24T01:05:09;6.70;;;1.65;;
75191;SDS011;63771;52.580;9.734;2023-02-24T01:07:36;2.88;;;1.70;;
75191;SDS011;63771;52.580;9.734;2023-02-24T01:10:01;7.35;;;1.35;;
75191;SDS011;63771;52.580;9.734;2023-02-24T01:12:29;2.95;;;1.55;;
75191;SDS011;63771;52.580;9.734;2023-02-24T01:15:13;6.03;;;1.58;;
75191;SDS011;63771;52.580;9.734;2023-02-24T01:17:40;5.10;;;1.83;;
75191;SDS011;63771;52.580;9.734;2023-02-24T01:20:06;6.28;;;1.33;;
75191;SDS011;63771;52.580;9.734;2023-02-24T01:22:44;7.60;;;1.88;;
75191;SDS011;63771;52.580;9.734;2023-02-24T01:25:14;13.10;;;2.05;;
75191;SDS011;63771;52.580;9.734;2023-02-24T01:27:40;5.30;;;1.48;;
75191;SDS011;63771;52.580;9.734;2023-02-24T01:30:09;6.40;;;1.47;;
75191;SDS011;63771;52.580;9.734;2023-02-24T01:32:40;9.07;;;1.52;;
75191;SDS011;63771;52.580;9.734;2023-02-24T01:35:06;7.13;;;1.77;;
75191;SDS011;63771;52.580;9.734;2023-02-24T01:37:32;4.32;;;1.58;;
75191;SDS011;63771;52.580;9.734;2023-02-24T01:39:58;5.32;;;1.75;;
75191;SDS011;63771;52.580;9.734;2023-02-24T01:42:28;10.13;;;1.98;;
75191;SDS011;63771;52.580;9.734;2023-02-24T01:45:01;3.72;;;1.40;;
75191;SDS011;63771;52.580;9.734;2023-02-24T01:47:30;10.13;;;1.30;;
75191;SDS011;63771;52.580;9.734;2023-02-24T01:49:55;7.43;;;2.05;;
75191;SDS011;63771;52.580;9.734;2023-02-24T01:52:26;5.18;;;1.83;;
75191;SDS011;63771;52.580;9.734;2023-02-24T01:59:51;3.55;;;2.13;;
75191;SDS011;63771;52.580;9.734;2023-02-24T02:02:18;5.90;;;1.40;;
75191;SDS011;63771;52.580;9.734;2023-02-24T02:04:51;7.78;;;1.38;;
75191;SDS011;63771;52.580;9.734;2023-02-24T02:07:23;6.22;;;1.48;;
75191;SDS011;63771;52.580;9.734;2023-02-24T02:09:51;5.45;;;1.50;;
75191;SDS011;63771;52.580;9.734;2023-02-24T02:12:20;11.05;;;2.20;;
75191;SDS011;63771;52.580;9.734;2023-02-24T02:14:47;3.33;;;1.67;;
75191;SDS011;63771;52.580;9.734;2023-02-24T02:17:21;8.95;;;2.00;;
75191;SDS011;63771;52.580;9.734;2023-02-24T02:31:50;6.95;;;2.15;;
75191;SDS011;63771;52.580;9.734;2023-02-24T02:37:22;6.53;;;1.83;;
75191;SDS011;63771;52.580;9.734;2023-02-24T02:45:06;3.38;;;1.73;;
75191;SDS011;63771;52.580;9.734;2023-02-24T02:47:47;4.95;;;1.50;;
75191;SDS011;63771;52.580;9.734;2023-02-24T02:50:25;5.55;;;1.60;;
75191;SDS011;63771;52.580;9.734;2023-02-24T02:55:37;6.10;;;1.98;;
75191;SDS011;63771;52.580;9.734;2023-02-24T02:58:11;13.07;;;2.03;;
75191;SDS011;63771;52.580;9.734;2023-02-24T03:00:44;1.40;;;1.23;;
75191;SDS011;63771;52.580;9.734;2023-02-24T03:03:22;5.85;;;2.05;;
75191;SDS011;63771;52.580;9.734;2023-02-24T03:05:51;3.47;;;1.90;;
75191;SDS011;63771;52.580;9.734;2023-02-24T03:08:24;8.73;;;1.98;;
75191;SDS011;63771;52.580;9.734;2023-02-24T03:10:54;3.72;;;1.35;;
75191;SDS011;63771;52.580;9.734;2023-02-24T03:13:24;7.25;;;2.00;;
75191;SDS011;63771;52.580;9.734;2023-02-24T03:15:54;4.00;;;1.70;;
75191;SDS011;63771;52.580;9.734;2023-02-24T03:18:25;3.80;;;1.40;;
75191;SDS011;63771;52.580;9.734;2023-02-24T03:20:58;8.93;;;1.70;;
75191;SDS011;63771;52.580;9.734;2023-02-24T03:23:31;4.00;;;1.50;;
75191;SDS011;63771;52.580;9.734;2023-02-24T03:34:18;8.00;;;2.30;;
75191;SDS011;63771;52.580;9.734;2023-02-24T03:36:58;2.03;;;1.65;;
75191;SDS011;63771;52.580;9.734;2023-02-24T03:39:24;7.00;;;1.85;;
75191;SDS011;63771;52.580;9.734;2023-02-24T03:41:54;3.03;;;1.95;;
75191;SDS011;63771;52.580;9.734;2023-02-24T03:44:24;6.07;;;1.98;;
75191;SDS011;63771;52.580;9.734;2023-02-24T03:46:50;4.43;;;1.90;;
75191;SDS011;63771;52.580;9.734;2023-02-24T03:49:16;4.57;;;1.83;;
75191;SDS011;63771;52.580;9.734;2023-02-24T03:52:31;4.88;;;1.63;;
75191;SDS011;63771;52.580;9.734;2023-02-24T04:03:41;4.03;;;1.42;;
75191;SDS011;63771;52.580;9.734;2023-02-24T04:06:22;1.30;;;1.30;;
75191;SDS011;63771;52.580;9.734;2023-02-24T04:11:58;4.28;;;1.65;;
75191;SDS011;63771;52.580;9.734;2023-02-24T04:14:42;5.85;;;2.03;;
75191;SDS011;63771;52.580;9.734;2023-02-24T04:17:13;5.78;;;1.67;;
75191;SDS011;63771;52.580;9.734;2023-02-24T04:19:45;3.30;;;1.80;;
75191;SDS011;63771;52.580;9.734;2023-02-24T04:22:14;3.55;;;1.38;;
75191;SDS011;63771;52.580;9.734;2023-02-24T04:24:43;4.13;;;1.58;;
75191;SDS011;63771;52.580;9.734;2023-02-24T04:27:12;5.78;;;2.47;;
75191;SDS011;63771;52.580;9.734;2023-02-24T04:29:40;4.45;;;1.33;;
75191;SDS011;63771;52.580;9.734;2023-02-24T04:32:12;3.85;;;2.08;;
75191;SDS011;63771;52.580;9.734;2023-02-24T04:34:41;2.67;;;1.25;;
75191;SDS011;63771;52.580;9.734;2023-02-24T04:37:07;3.60;;;2.05;;
75191;SDS011;63771;52.580;9.734;2023-02-24T04:39:33;3.08;;;2.78;;
75191;SDS011;63771;52.580;9.734;2023-02-24T04:42:02;3.08;;;1.65;;
75191;SDS011;63771;52.580;9.734;2023-02-24T04:44:29;3.95;;;1.73;;
75191;SDS011;63771;52.580;9.734;2023-02-24T04:46:56;1.55;;;1.10;;
75191;SDS011;63771;52.580;9.734;2023-02-24T04:49:22;3.60;;;1.42;;
75191;SDS011;63771;52.580;9.734;2023-02-24T04:51:47;6.38;;;4.03;;
75191;SDS011;63771;52.580;9.734;2023-02-24T04:54:14;2.07;;;1.00;;
75191;SDS011;63771;52.580;9.734;2023-02-24T04:56:44;4.22;;;1.10;;
75191;SDS011;63771;52.580;9.734;2023-02-24T04:59:14;3.47;;;1.40;;
75191;SDS011;63771;52.580;9.734;2023-02-24T05:01:41;6.28;;;2.08;;
75191;SDS011;63771;52.580;9.734;2023-02-24T05:04:08;8.18;;;1.95;;
75191;SDS011;63771;52.580;9.734;2023-02-24T05:06:34;1.48;;;0.95;;
75191;SDS011;63771;52.580;9.734;2023-02-24T05:09:04;1.13;;;1.08;;
75191;SDS011;63771;52.580;9.734;2023-02-24T05:11:38;5.30;;;1.17;;
75191;SDS011;63771;52.580;9.734;2023-02-24T05:14:13;3.97;;;1.10;;
75191;SDS011;63771;52.580;9.734;2023-02-24T05:16:44;2.30;;;1.10;;
75191;SDS011;63771;52.580;9.734;2023-02-24T05:19:11;5.03;;;1.40;;
75191;SDS011;63771;52.580;9.734;2023-02-24T05:21:56;3.72;;;1.23;;
75191;SDS011;63771;52.580;9.734;2023-02-24T05:24:22;5.13;;;1.83;;
75191;SDS011;63771;52.580;9.734;2023-02-24T05:26:49;4.30;;;1.27;;
75191;SDS011;63771;52.580;9.734;2023-02-24T05:29:22;4.55;;;1.17;;
75191;SDS011;63771;52.580;9.734;2023-02-24T05:31:58;4.15;;;1.35;;
75191;SDS011;63771;52.580;9.734;2023-02-24T05:34:27;1.80;;;0.82;;
75191;SDS011;63771;52.580;9.734;2023-02-24T05:36:56;0.95;;;0.95;;
75191;SDS011;63771;52.580;9.734;2023-02-24T05:39:23;3.40;;;1.30;;
75191;SDS011;63771;52.580;9.734;2023-02-24T05:41:50;4.95;;;1.20;;
75191;SDS011;63771;52.580;9.734;2023-02-24T05:44:18;2.35;;;1.17;;
75191;SDS011;63771;52.580;9.734;2023-02-24T05:46:50;3.58;;;1.23;;
75191;SDS011;63771;52.580;9.734;2023-02-24T05:49:21;3.00;;;1.25;;
75191;SDS011;63771;52.580;9.734;2023-02-24T05:51:51;2.95;;;1.20;;
75191;SDS011;63771;52.580;9.734;2023-02-24T05:54:21;4.43;;;1.08;;
75191;SDS011;63771;52.580;9.734;2023-02-24T05:56:52;2.50;;;0.90;;
75191;SDS011;63771;52.580;9.734;2023-02-24T05:59:20;3.30;;;1.20;;
75191;SDS011;63771;52.580;9.734;2023-02-24T06:01:47;9.55;;;1.55;;
75191;SDS011;63771;52.580;9.734;2023-02-24T06:04:14;4.85;;;1.50;;
75191;SDS011;63771;52.580;9.734;2023-02-24T06:07:03;3.83;;;1.48;;
75191;SDS011;63771;52.580;9.734;2023-02-24T06:09:49;5.28;;;1.60;;
75191;SDS011;63771;52.580;9.734;2023-02-24T06:12:25;2.47;;;1.25;;
75191;SDS011;63771;52.580;9.734;2023-02-24T06:14:52;3.28;;;1.20;;
75191;SDS011;63771;52.580;9.734;2023-02-24T06:17:18;5.60;;;1.40;;
75191;SDS011;63771;52.580;9.734;2023-02-24T06:19:44;3.95;;;1.23;;
75191;SDS011;63771;52.580;9.734;2023-02-24T06:22:13;3.88;;;1.33;;
75191;SDS011;63771;52.580;9.734;2023-02-24T06:24:40;3.65;;;1.25;;
75191;SDS011;63771;52.580;9.734;2023-02-24T06:27:08;7.97;;;1.30;;
75191;SDS011;63771;52.580;9.734;2023-02-24T06:29:45;2.20;;;1.33;;
75191;SDS011;63771;52.580;9.734;2023-02-24T06:32:16;6.38;;;1.23;;
75191;SDS011;63771;52.580;9.734;2023-02-24T06:34:42;2.67;;;1.45;;
75191;SDS011;63771;52.580;9.734;2023-02-24T06:37:09;2.37;;;1.60;;
75191;SDS011;63771;52.580;9.734;2023-02-24T06:39:37;7.80;;;2.40;;
75191;SDS011;63771;52.580;9.734;2023-02-24T06:42:03;3.92;;;2.22;;
75191;SDS011;63771;52.580;9.734;2023-02-24T06:44:30;1.98;;;1.23;;
75191;SDS011;63771;52.580;9.734;2023-02-24T06:46:56;4.03;;;1.30;;
75191;SDS011;63771;52.580;9.734;2023-02-24T06:49:22;3.63;;;1.38;;
75191;SDS011;63771;52.580;9.734;2023-02-24T06:51:47;1.58;;;1.35;;
75191;SDS011;63771;52.580;9.734;2023-02-24T06:54:14;4.93;;;1.20;;
75191;SDS011;63771;52.580;9.734;2023-02-24T06:56:40;5.40;;;1.38;;
75191;SDS011;63771;52.580;9.734;2023-02-24T06:59:05;4.90;;;1.10;;
75191;SDS011;63771;52.580;9.734;2023-02-24T07:04:08;3.40;;;1.30;;
75191;SDS011;63771;52.580;9.734;2023-02-24T07:06:35;4.25;;;1.10;;
75191;SDS011;63771;52.580;9.734;2023-02-24T07:09:07;2.15;;;1.25;;
75191;SDS011;63771;52.580;9.734;2023-02-24T07:11:37;3.20;;;2.05;;
75191;SDS011;63771;52.580;9.734;2023-02-24T07:14:07;5.25;;;1.13;;
75191;SDS011;63771;52.580;9.734;2023-02-24T07:16:35;7.13;;;1.70;;
75191;SDS011;63771;52.580;9.734;2023-02-24T07:19:02;1.10;;;1.00;;
75191;SDS011;63771;52.580;9.734;2023-02-24T07:21:33;5.00;;;1.25;;
75191;SDS011;63771;52.580;9.734;2023-02-24T07:24:10;0.70;;;0.70;;
75191;SDS011;63771;52.580;9.734;2023-02-24T07:29:20;5.22;;;1.85;;
75191;SDS011;63771;52.580;9.734;2023-02-24T07:31:46;5.72;;;1.30;;
75191;SDS011;63771;52.580;9.734;2023-02-24T07:34:12;3.03;;;1.02;;
75191;SDS011;63771;52.580;9.734;2023-02-24T07:36:39;3.63;;;1.17;;
75191;SDS011;63771;52.580;9.734;2023-02-24T07:39:13;2.70;;;1.20;;
75191;SDS011;63771;52.580;9.734;2023-02-24T07:41:39;3.03;;;1.30;;
75191;SDS011;63771;52.580;9.734;2023-02-24T07:44:10;4.88;;;0.90;;
75191;SDS011;63771;52.580;9.734;2023-02-24T07:46:38;3.10;;;1.02;;
75191;SDS011;63771;52.580;9.734;2023-02-24T07:49:03;1.63;;;1.23;;
75191;SDS011;63771;52.580;9.734;2023-02-24T07:51:29;4.87;;;1.77;;
75191;SDS011;63771;52.580;9.734;2023-02-24T07:53:56;3.35;;;1.55;;
75191;SDS011;63771;52.580;9.734;2023-02-24T07:56:23;6.65;;;2.20;;
75191;SDS011;63771;52.580;9.734;2023-02-24T07:58:51;3.80;;;1.85;;
75191;SDS011;63771;52.580;9.734;2023-02-24T08:01:23;4.35;;;1.23;;
75191;SDS011;63771;52.580;9.734;2023-02-24T08:03:52;2.40;;;1.27;;
75191;SDS011;63771;52.580;9.734;2023-02-24T08:06:23;2.13;;;1.15;;
75191;SDS011;63771;52.580;9.734;2023-02-24T08:09:02;2.65;;;1.20;;
75191;SDS011;63771;52.580;9.734;2023-02-24T08:11:41;2.63;;;1.23;;
75191;SDS011;63771;52.580;9.734;2023-02-24T08:14:11;2.80;;;0.95;;
75191;SDS011;63771;52.580;9.734;2023-02-24T08:16:41;1.65;;;1.00;;
75191;SDS011;63771;52.580;9.734;2023-02-24T08:19:11;3.03;;;1.90;;
75191;SDS011;63771;52.580;9.734;2023-02-24T08:21:42;5.35;;;1.52;;
75191;SDS011;63771;52.580;9.734;2023-02-24T08:24:14;3.90;;;1.33;;
75191;SDS011;63771;52.580;9.734;2023-02-24T08:29:17;3.22;;;1.45;;
75191;SDS011;63771;52.580;9.734;2023-02-24T08:31:44;2.63;;;1.52;;
75191;SDS011;63771;52.580;9.734;2023-02-24T08:34:10;4.18;;;1.90;;
75191;SDS011;63771;52.580;9.734;2023-02-24T08:36:40;2.38;;;1.83;;
75191;SDS011;63771;52.580;9.734;2023-02-24T08:39:10;3.88;;;1.63;;
75191;SDS011;63771;52.580;9.734;2023-02-24T08:41:38;4.28;;;1.77;;
75191;SDS011;63771;52.580;9.734;2023-02-24T08:44:10;4.68;;;2.00;;
75191;SDS011;63771;52.580;9.734;2023-02-24T08:46:36;5.68;;;1.73;;
75191;SDS011;63771;52.580;9.734;2023-02-24T08:49:03;8.40;;;1.88;;
75191;SDS011;63771;52.580;9.734;2023-02-24T08:51:35;5.25;;;1.95;;
75191;SDS011;63771;52.580;9.734;2023-02-24T08:54:08;10.85;;;1.83;;
75191;SDS011;63771;52.580;9.734;2023-02-24T08:56:39;1.70;;;1.27;;
75191;SDS011;63771;52.580;9.734;2023-02-24T08:59:07;1.77;;;1.08;;
75191;SDS011;63771;52.580;9.734;2023-02-24T09:01:53;2.58;;;1.60;;
75191;SDS011;63771;52.580;9.734;2023-02-24T09:04:38;6.80;;;1.85;;
75191;SDS011;63771;52.580;9.734;2023-02-24T09:07:04;5.57;;;1.55;;
75191;SDS011;63771;52.580;9.734;2023-02-24T09:09:35;7.93;;;1.80;;
75191;SDS011;63771;52.580;9.734;2023-02-24T09:12:05;6.03;;;2.10;;
75191;SDS011;63771;52.580;9.734;2023-02-24T09:14:32;4.40;;;1.73;;
75191;SDS011;63771;52.580;9.734;2023-02-24T09:17:02;3.17;;;1.70;;
75191;SDS011;63771;52.580;9.734;2023-02-24T09:19:37;5.35;;;2.30;;
75191;SDS011;63771;52.580;9.734;2023-02-24T09:22:11;4.70;;;1.58;;
75191;SDS011;63771;52.580;9.734;2023-02-24T09:24:59;3.75;;;1.85;;
75191;SDS011;63771;52.580;9.734;2023-02-24T09:28:06;5.10;;;2.40;;
75191;SDS011;63771;52.580;9.734;2023-02-24T09:30:41;2.65;;;1.98;;
75191;SDS011;63771;52.580;9.734;2023-02-24T09:38:45;5.30;;;3.03;;
75191;SDS011;63771;52.580;9.734;2023-02-24T09:44:39;7.22;;;2.72;;
75191;SDS011;63771;52.580;9.734;2023-02-24T09:47:09;5.22;;;2.90;;
75191;SDS011;63771;52.580;9.734;2023-02-24T09:49:43;3.60;;;2.70;;
75191;SDS011;63771;52.580;9.734;2023-02-24T09:52:16;5.18;;;2.58;;
75191;SDS011;63771;52.580;9.734;2023-02-24T09:54:44;5.18;;;3.10;;
75191;SDS011;63771;52.580;9.734;2023-02-24T10:03:52;3.15;;;2.35;;
75191;SDS011;63771;52.580;9.734;2023-02-24T10:06:30;3.13;;;2.08;;
75191;SDS011;63771;52.580;9.734;2023-02-24T10:11:40;2.80;;;2.30;;
75191;SDS011;63771;52.580;9.734;2023-02-24T10:16:54;4.60;;;2.55;;
75191;SDS011;63771;52.580;9.734;2023-02-24T10:19:38;6.03;;;2.20;;
75191;SDS011;63771;52.580;9.734;2023-02-24T10:22:19;3.58;;;2.17;;
75191;SDS011;63771;52.580;9.734;2023-02-24T10:25:02;5.05;;;2.13;;
75191;SDS011;63771;52.580;9.734;2023-02-24T10:31:08;4.47;;;2.15;;
75191;SDS011;63771;52.580;9.734;2023-02-24T10:33:34;2.63;;;2.42;;
75191;SDS011;63771;52.580;9.734;2023-02-24T10:36:04;3.80;;;2.22;;
75191;SDS011;63771;52.580;9.734;2023-02-24T10:38:34;4.90;;;2.50;;
75191;SDS011;63771;52.580;9.734;2023-02-24T10:41:01;3.03;;;2.50;;
75191;SDS011;63771;52.580;9.734;2023-02-24T10:43:30;3.80;;;3.20;;
75191;SDS011;63771;52.580;9.734;2023-02-24T10:48:41;4.05;;;2.67;;
75191;SDS011;63771;52.580;9.734;2023-02-24T10:51:14;4.80;;;2.40;;
75191;SDS011;63771;52.580;9.734;2023-02-24T10:54:03;2.60;;;1.90;;
75191;SDS011;63771;52.580;9.734;2023-02-24T10:56:58;4.43;;;2.33;;
75191;SDS011;63771;52.580;9.734;2023-02-24T10:59:58;2.75;;;2.20;;
75191;SDS011;63771;52.580;9.734;2023-02-24T11:02:46;2.90;;;2.70;;
75191;SDS011;63771;52.580;9.734;2023-02-24T11:05:33;4.70;;;2.80;;
75191;SDS011;63771;52.580;9.734;2023-02-24T11:11:00;2.42;;;2.25;;
75191;SDS011;63771;52.580;9.734;2023-02-24T11:13:31;5.35;;;2.40;;
75191;SDS011;63771;52.580;9.734;2023-02-24T11:16:16;2.25;;;2.10;;
75191;SDS011;63771;52.580;9.734;2023-02-24T11:19:00;2.50;;;2.30;;
75191;SDS011;63771;52.580;9.734;2023-02-24T11:21:26;2.78;;;2.45;;
75191;SDS011;63771;52.580;9.734;2023-02-24T11:23:55;3.47;;;2.50;;
75191;SDS011;63771;52.580;9.734;2023-02-24T11:26:36;2.65;;;2.40;;
75191;SDS011;63771;52.580;9.734;2023-02-24T11:40:40;2.28;;;2.17;;
75191;SDS011;63771;52.580;9.734;2023-02-24T11:43:28;4.03;;;2.67;;
75191;SDS011;63771;52.580;9.734;2023-02-24T11:45:58;3.28;;;2.55;;
75191;SDS011;63771;52.580;9.734;2023-02-24T11:48:31;3.60;;;3.15;;
75191;SDS011;63771;52.580;9.734;2023-02-24T11:51:02;2.88;;;2.67;;
75191;SDS011;63771;52.580;9.734;2023-02-24T11:53:39;2.28;;;2.10;;
75191;SDS011;63771;52.580;9.734;2023-02-24T12:01:13;3.47;;;3.03;;
75191;SDS011;63771;52.580;9.734;2023-02-24T12:06:44;2.72;;;2.53;;
75191;SDS011;63771;52.580;9.734;2023-02-24T12:09:20;2.20;;;2.10;;
75191;SDS011;63771;52.580;9.734;2023-02-24T12:20:03;3.10;;;2.90;;
75191;SDS011;63771;52.580;9.734;2023-02-24T12:22:32;2.97;;;2.38;;
75191;SDS011;63771;52.580;9.734;2023-02-24T12:25:13;3.03;;;2.72;;
75191;SDS011;63771;52.580;9.734;2023-02-24T12:27:47;3.13;;;2.60;;
75191;SDS011;63771;52.580;9.734;2023-02-24T12:33:36;2.45;;;2.33;;
75191;SDS011;63771;52.580;9.734;2023-02-24T12:36:20;2.38;;;2.15;;
75191;SDS011;63771;52.580;9.734;2023-02-24T12:38:54;3.20;;;2.53;;
75191;SDS011;63771;52.580;9.734;2023-02-24T12:44:37;3.30;;;3.10;;
75191;SDS011;63771;52.580;9.734;2023-02-24T12:47:24;3.33;;;3.13;;
75191;SDS011;63771;52.580;9.734;2023-02-24T12:50:08;2.95;;;2.75;;
75191;SDS011;63771;52.580;9.734;2023-02-24T12:58:12;3.17;;;2.88;;
75191;SDS011;63771;52.580;9.734;2023-02-24T13:00:50;2.88;;;2.67;;
75191;SDS011;63771;52.580;9.734;2023-02-24T13:06:05;2.67;;;2.55;;
75191;SDS011;63771;52.580;9.734;2023-02-24T13:14:07;3.60;;;3.38;;
75191;SDS011;63771;52.580;9.734;2023-02-24T13:16:40;3.58;;;3.20;;
75191;SDS011;63771;52.580;9.734;2023-02-24T13:21:43;3.72;;;3.42;;
75191;SDS011;63771;52.580;9.734;2023-02-24T13:24:53;4.10;;;3.80;;
75191;SDS011;63771;52.580;9.734;2023-02-24T13:28:01;5.25;;;4.80;;
75191;SDS011;63771;52.580;9.734;2023-02-24T13:30:36;3.88;;;3.60;;
75191;SDS011;63771;52.580;9.734;2023-02-24T13:33:51;4.28;;;3.97;;
75191;SDS011;63771;52.580;9.734;2023-02-24T13:36:16;4.50;;;4.15;;
75191;SDS011;63771;52.580;9.734;2023-02-24T13:38:47;5.03;;;4.53;;
75191;SDS011;63771;52.580;9.734;2023-02-24T13:43:59;4.65;;;4.35;;
75191;SDS011;63771;52.580;9.734;2023-02-24T13:46:39;4.97;;;4.60;;
75191;SDS011;63771;52.580;9.734;2023-02-24T13:49:21;4.05;;;3.75;;
75191;SDS011;63771;52.580;9.734;2023-02-24T13:55:19;7.07;;;5.05;;
75191;SDS011;63771;52.580;9.734;2023-02-24T13:57:46;5.00;;;4.25;;
75191;SDS011;63771;52.580;9.734;2023-02-24T14:03:08;4.90;;;4.50;;
75191;SDS011;63771;52.580;9.734;2023-02-24T14:05:35;9.25;;;5.50;;
75191;SDS011;63771;52.580;9.734;2023-02-24T14:08:01;4.90;;;4.40;;
75191;SDS011;63771;52.580;9.734;2023-02-24T14:10:30;6.38;;;4.47;;
75191;SDS011;63771;52.580;9.734;2023-02-24T14:13:05;4.78;;;4.43;;
75191;SDS011;63771;52.580;9.734;2023-02-24T14:15:40;5.97;;;4.90;;
75191;SDS011;63771;52.580;9.734;2023-02-24T14:18:17;6.55;;;4.63;;
75191;SDS011;63771;52.580;9.734;2023-02-24T14:20:44;5.07;;;4.38;;
75191;SDS011;63771;52.580;9.734;2023-02-24T14:23:26;5.80;;;4.13;;
75191;SDS011;63771;52.580;9.734;2023-02-24T14:28:53;4.88;;;4.45;;
75191;SDS011;63771;52.580;9.734;2023-02-24T14:31:21;5.45;;;4.13;;
75191;SDS011;63771;52.580;9.734;2023-02-24T14:33:51;5.18;;;4.72;;
75191;SDS011;63771;52.580;9.734;2023-02-24T14:36:21;5.50;;;4.72;;
75191;SDS011;63771;52.580;9.734;2023-02-24T14:38:58;6.13;;;4.43;;
75191;SDS011;63771;52.580;9.734;2023-02-24T14:41:38;7.68;;;5.25;;
75191;SDS011;63771;52.580;9.734;2023-02-24T14:44:07;5.00;;;4.63;;
75191;SDS011;63771;52.580;9.734;2023-02-24T14:47:01;5.57;;;5.03;;
75191;SDS011;63771;52.580;9.734;2023-02-24T14:49:31;5.75;;;5.28;;
75191;SDS011;63771;52.580;9.734;2023-02-24T14:52:06;5.18;;;4.75;;
75191;SDS011;63771;52.580;9.734;2023-02-24T14:54:43;5.35;;;4.32;;
75191;SDS011;63771;52.580;9.734;2023-02-24T14:57:20;6.28;;;4.18;;
75191;SDS011;63771;52.580;9.734;2023-02-24T14:59:52;5.95;;;5.43;;
75191;SDS011;63771;52.580;9.734;2023-02-24T15:02:23;6.32;;;5.07;;
75191;SDS011;63771;52.580;9.734;2023-02-24T15:04:55;5.40;;;4.90;;
75191;SDS011;63771;52.580;9.734;2023-02-24T15:07:25;6.10;;;5.50;;
75191;SDS011;63771;52.580;9.734;2023-02-24T15:09:54;7.07;;;6.13;;
75191;SDS011;63771;52.580;9.734;2023-02-24T15:17:23;6.73;;;5.33;;
75191;SDS011;63771;52.580;9.734;2023-02-24T15:19:48;5.90;;;5.28;;
75191;SDS011;63771;52.580;9.734;2023-02-24T15:22:29;8.13;;;4.82;;
75191;SDS011;63771;52.580;9.734;2023-02-24T15:27:48;5.78;;;5.00;;
75191;SDS011;63771;52.580;9.734;2023-02-24T15:30:31;6.55;;;5.95;;
75191;SDS011;63771;52.580;9.734;2023-02-24T15:33:14;6.45;;;5.90;;
75191;SDS011;63771;52.580;9.734;2023-02-24T15:35:51;7.25;;;4.97;;
75191;SDS011;63771;52.580;9.734;2023-02-24T15:38:34;7.82;;;5.28;;
75191;SDS011;63771;52.580;9.734;2023-02-24T15:41:02;6.93;;;5.32;;
75191;SDS011;63771;52.580;9.734;2023-02-24T15:43:50;12.05;;;4.88;;
75191;SDS011;63771;52.580;9.734;2023-02-24T15:48:42;6.07;;;5.03;;
75191;SDS011;63771;52.580;9.734;2023-02-24T15:51:12;5.18;;;4.45;;
75191;SDS011;63771;52.580;9.734;2023-02-24T15:53:54;5.40;;;4.75;;
75191;SDS011;63771;52.580;9.734;2023-02-24T15:56:20;4.78;;;4.38;;
75191;SDS011;63771;52.580;9.734;2023-02-24T15:58:45;7.57;;;5.10;;
75191;SDS011;63771;52.580;9.734;2023-02-24T16:01:11;5.63;;;5.10;;
75191;SDS011;63771;52.580;9.734;2023-02-24T16:03:37;7.53;;;4.68;;
75191;SDS011;63771;52.580;9.734;2023-02-24T16:06:03;8.63;;;4.93;;
75191;SDS011;63771;52.580;9.734;2023-02-24T16:08:29;6.65;;;4.05;;
75191;SDS011;63771;52.580;9.734;2023-02-24T16:10:54;4.15;;;3.75;;
75191;SDS011;63771;52.580;9.734;2023-02-24T16:13:21;6.15;;;4.80;;
75191;SDS011;63771;52.580;9.734;2023-02-24T16:15:49;5.15;;;4.75;;
75191;SDS011;63771;52.580;9.734;2023-02-24T16:18:20;6.22;;;5.03;;
75191;SDS011;63771;52.580;9.734;2023-02-24T16:20:47;5.68;;;4.97;;
75191;SDS011;63771;52.580;9.734;2023-02-24T16:23:18;6.60;;;4.70;;
75191;SDS011;63771;52.580;9.734;2023-02-24T16:25:44;5.88;;;5.40;;
75191;SDS011;63771;52.580;9.734;2023-02-24T16:28:13;6.68;;;5.72;;
75191;SDS011;63771;52.580;9.734;2023-02-24T16:30:40;5.57;;;4.97;;
75191;SDS011;63771;52.580;9.734;2023-02-24T16:33:09;9.45;;;7.28;;
75191;SDS011;63771;52.580;9.734;2023-02-24T16:35:36;6.63;;;5.35;;
75191;SDS011;63771;52.580;9.734;2023-02-24T16:38:03;6.07;;;5.55;;
75191;SDS011;63771;52.580;9.734;2023-02-24T16:40:30;7.65;;;4.68;;
75191;SDS011;63771;52.580;9.734;2023-02-24T16:43:01;5.50;;;4.55;;
75191;SDS011;63771;52.580;9.734;2023-02-24T16:45:28;5.32;;;4.82;;
75191;SDS011;63771;52.580;9.734;2023-02-24T16:47:58;7.40;;;5.65;;
75191;SDS011;63771;52.580;9.734;2023-02-24T16:50:29;7.07;;;6.20;;
75191;SDS011;63771;52.580;9.734;2023-02-24T16:53:03;5.93;;;4.43;;
75191;SDS011;63771;52.580;9.734;2023-02-24T16:55:29;5.72;;;5.18;;
75191;SDS011;63771;52.580;9.734;2023-02-24T16:57:54;6.70;;;5.07;;
75191;SDS011;63771;52.580;9.734;2023-02-24T17:00:20;8.57;;;6.15;;
75191;SDS011;63771;52.580;9.734;2023-02-24T17:02:47;5.95;;;5.35;;
75191;SDS011;63771;52.580;9.734;2023-02-24T17:05:17;8.45;;;5.53;;
75191;SDS011;63771;52.580;9.734;2023-02-24T17:07:46;7.72;;;5.95;;
75191;SDS011;63771;52.580;9.734;2023-02-24T17:10:13;6.20;;;5.70;;
75191;SDS011;63771;52.580;9.734;2023-02-24T17:12:39;6.82;;;5.88;;
75191;SDS011;63771;52.580;9.734;2023-02-24T17:15:04;6.13;;;5.57;;
75191;SDS011;63771;52.580;9.734;2023-02-24T17:17:30;7.82;;;5.65;;
75191;SDS011;63771;52.580;9.734;2023-02-24T17:19:56;6.55;;;5.43;;
75191;SDS011;63771;52.580;9.734;2023-02-24T17:22:21;8.73;;;5.60;;
75191;SDS011;63771;52.580;9.734;2023-02-24T17:24:47;8.73;;;5.10;;
75191;SDS011;63771;52.580;9.734;2023-02-24T17:27:12;6.43;;;5.82;;
75191;SDS011;63771;52.580;9.734;2023-02-24T17:29:38;6.13;;;5.35;;
75191;SDS011;63771;52.580;9.734;2023-02-24T17:32:03;10.27;;;5.55;;
75191;SDS011;63771;52.580;9.734;2023-02-24T17:34:29;7.57;;;5.63;;
75191;SDS011;63771;52.580;9.734;2023-02-24T17:36:54;5.23;;;4.77;;
75191;SDS011;63771;52.580;9.734;2023-02-24T17:39:19;5.50;;;5.00;;
75191;SDS011;63771;52.580;9.734;2023-02-24T17:41:45;5.15;;;4.45;;
75191;SDS011;63771;52.580;9.734;2023-02-24T17:44:10;6.80;;;5.33;;
75191;SDS011;63771;52.580;9.734;2023-02-24T17:46:35;5.70;;;4.77;;
75191;SDS011;63771;52.580;9.734;2023-02-24T17:49:01;6.35;;;4.80;;
75191;SDS011;63771;52.580;9.734;2023-02-24T17:51:28;6.80;;;5.93;;